createdAt,value
2023-04-17T00:02:43.277Z,98950.84
2023-04-17T00:05:57.045Z,98958.78
2023-04-17T00:09:09.441Z,98962.70
2023-04-17T00:12:21.964Z,98954.67
2023-04-17T00:15:34.402Z,98954.77
2023-04-17T00:18:46.479Z,98960.19
2023-04-17T00:21:58.343Z,98954.94
2023-04-17T00:25:13.132Z,98951.34
2023-04-17T00:28:25.310Z,98959.99
2023-04-17T00:31:37.539Z,98952.19
2023-04-17T00:34:50.562Z,98952.31
2023-04-17T00:38:02.578Z,98956.16
2023-04-17T00:41:14.834Z,98955.19
2023-04-17T00:44:26.906Z,98958.68
2023-04-17T00:47:39.214Z,98957.02
2023-04-17T00:50:52.767Z,98960.61
2023-04-17T00:54:06.220Z,98954.72
2023-04-17T00:57:18.648Z,98958.33
2023-04-17T01:00:32.406Z,98958.83
2023-04-17T01:03:44.646Z,98958.20
2023-04-17T01:06:59.704Z,98956.76
2023-04-17T01:10:14.176Z,98964.22
2023-04-17T01:13:26.502Z,98953.39
2023-04-17T01:16:40.558Z,98963.88
2023-04-17T01:19:53.798Z,98963.16
2023-04-17T01:23:06.764Z,98957.61
2023-04-17T01:26:22.812Z,98962.17
2023-04-17T01:29:35.074Z,98956.28
2023-04-17T01:32:47.257Z,98958.57
2023-04-17T01:35:59.444Z,98956.88
2023-04-17T01:39:11.883Z,98943.19
2023-04-17T01:42:24.426Z,98946.57
2023-04-17T01:45:36.442Z,98945.22
2023-04-17T01:48:48.547Z,98954.34
2023-04-17T01:52:00.571Z,98944.88
2023-04-17T01:55:14.426Z,98950.17
2023-04-17T01:58:26.744Z,98951.84
2023-04-17T02:01:39.091Z,98951.84
2023-04-17T02:04:51.287Z,98954.48
2023-04-17T02:08:03.357Z,98966.49
2023-04-17T02:11:15.522Z,98964.44
2023-04-17T02:14:27.390Z,98973.34
2023-04-17T02:17:41.593Z,98964.45
2023-04-17T02:20:55.757Z,98968.05
2023-04-17T02:24:07.853Z,98964.33
2023-04-17T02:27:19.940Z,98963.00
2023-04-17T02:30:33.236Z,98961.79
2023-04-17T02:33:45.725Z,98972.38
2023-04-17T02:36:57.668Z,98972.73
2023-04-17T02:40:11.352Z,98960.00
2023-04-17T02:43:23.685Z,98960.94
2023-04-17T02:46:35.841Z,98962.12
2023-04-17T02:49:48.428Z,98962.51
2023-04-17T02:53:00.403Z,98966.72
2023-04-17T03:05:15.275Z,98969.06
2023-04-17T03:08:32.592Z,98981.58
2023-04-17T03:11:44.085Z,98972.42
2023-04-17T03:14:56.194Z,98982.64
2023-04-17T03:18:08.655Z,98981.56
2023-04-17T03:21:20.780Z,98979.84
2023-04-17T03:24:33.671Z,98981.28
2023-04-17T03:27:46.954Z,98987.42
2023-04-17T03:31:01.607Z,98980.78
2023-04-17T03:34:15.850Z,98984.14
2023-04-17T03:37:28.178Z,98980.27
2023-04-17T03:40:40.623Z,98980.98
2023-04-17T03:43:53.204Z,98992.19
2023-04-17T03:47:05.230Z,98990.66
2023-04-17T03:50:18.466Z,99003.89
2023-04-17T03:53:38.321Z,99000.61
2023-04-17T03:56:52.253Z,98997.59
2023-04-17T04:00:04.965Z,98999.39
2023-04-17T04:03:19.035Z,99001.19
2023-04-17T04:06:35.422Z,98994.46
2023-04-17T04:09:48.479Z,98994.09
2023-04-17T04:13:01.920Z,98992.80
2023-04-17T04:16:15.869Z,99009.00
2023-04-17T04:55:14.238Z,99015.06
2023-04-17T04:58:29.871Z,99021.07
2023-04-17T05:01:45.078Z,99019.84
2023-04-17T05:07:59.501Z,99016.61
2023-04-17T05:14:16.346Z,99021.72
2023-04-17T05:34:14.953Z,99025.73
2023-04-17T05:36:44.740Z,99025.10
2023-04-17T05:51:36.524Z,99041.45
2023-04-17T05:54:50.161Z,99034.20
2023-04-17T05:58:39.632Z,99039.59
2023-04-17T06:14:05.187Z,99037.88
2023-04-17T06:17:17.545Z,99043.76
2023-04-17T06:20:30.145Z,99047.88
2023-04-17T06:23:42.158Z,99047.02
2023-04-17T06:26:54.358Z,99045.54
2023-04-17T06:30:06.574Z,99051.38
2023-04-17T06:33:21.230Z,99051.38
2023-04-17T06:36:33.562Z,99049.43
2023-04-17T06:39:47.446Z,99050.84
2023-04-17T06:42:59.969Z,99062.59
2023-04-17T06:46:13.264Z,99060.94
2023-04-17T06:49:25.726Z,99064.40
2023-04-17T06:52:38.027Z,99061.18
2023-04-17T06:55:50.293Z,99057.08
2023-04-17T06:59:03.191Z,99056.25
2023-04-17T07:02:15.788Z,99059.62
2023-04-17T07:05:28.286Z,99060.78
2023-04-17T07:08:40.564Z,99066.52
2023-04-17T07:11:52.680Z,99072.78
2023-04-17T07:15:04.936Z,99060.22
2023-04-17T07:18:17.189Z,99069.05
2023-04-17T07:21:29.311Z,99067.81
2023-04-17T07:24:41.462Z,99061.70
2023-04-17T07:27:53.580Z,99069.83
2023-04-17T07:31:08.301Z,99065.34
2023-04-17T07:34:20.564Z,99074.30
2023-04-17T07:37:33.113Z,99061.43
2023-04-17T07:40:45.592Z,99067.05
2023-04-17T07:43:59.082Z,99071.41
2023-04-17T07:47:11.511Z,99070.02
2023-04-17T07:50:24.259Z,99072.36
2023-04-17T07:53:37.561Z,99075.14
2023-04-17T07:56:50.884Z,99073.77
2023-04-17T08:00:03.853Z,99073.51
2023-04-17T08:03:18.452Z,99074.87
2023-04-17T08:06:31.123Z,99074.76
2023-04-17T08:09:44.082Z,99081.32
2023-04-17T08:12:56.443Z,99086.89
2023-04-17T08:16:08.688Z,99076.27
2023-04-17T08:19:21.118Z,99079.47
2023-04-17T08:22:34.096Z,99089.83
2023-04-17T08:25:46.254Z,99089.69
2023-04-17T08:29:00.479Z,99091.95
2023-04-17T08:32:14.608Z,99088.75
2023-04-17T08:35:27.064Z,99084.25
2023-04-17T08:39:13.866Z,99091.11
2023-04-17T08:42:25.689Z,99094.17
2023-04-17T08:45:38.698Z,99107.45
2023-04-17T08:48:52.293Z,99104.80
2023-04-17T08:52:09.878Z,99089.70
2023-04-17T08:55:25.197Z,99097.97
2023-04-17T08:58:40.248Z,99100.33
2023-04-17T09:02:10.648Z,99101.33
2023-04-17T09:05:30.608Z,99104.14
2023-04-17T09:08:43.356Z,99097.44
2023-04-17T09:12:14.603Z,99101.34
2023-04-17T09:15:27.679Z,99099.53
2023-04-17T09:18:41.358Z,99100.34
2023-04-17T09:21:53.652Z,99090.71
2023-04-17T09:25:06.173Z,99093.92
2023-04-17T09:28:20.168Z,99095.48
2023-04-17T09:31:38.141Z,99100.09
2023-04-17T09:34:50.844Z,99100.66
2023-04-17T09:38:03.569Z,99097.59
2023-04-17T09:41:29.368Z,99097.33
2023-04-17T09:44:42.547Z,99099.57
2023-04-17T09:47:56.985Z,99094.78
2023-04-17T09:51:09.523Z,99095.65
2023-04-17T09:54:23.312Z,99090.61
2023-04-17T09:57:35.927Z,99090.28
2023-04-17T10:00:49.089Z,99099.50
2023-04-17T10:04:04.750Z,99091.40
2023-04-17T10:07:18.977Z,99091.37
2023-04-17T10:10:34.366Z,99082.07
2023-04-17T10:13:49.569Z,99083.95
2023-04-17T10:17:02.320Z,99083.41
2023-04-17T10:20:46.536Z,99079.73
2023-04-17T10:24:00.144Z,99078.83
2023-04-17T10:27:45.581Z,99083.03
2023-04-17T10:31:02.216Z,99079.09
2023-04-17T10:34:18.028Z,99073.71
2023-04-17T10:38:02.590Z,99077.76
2023-04-17T10:41:16.375Z,99076.63
2023-04-17T10:44:30.507Z,99082.83
2023-04-17T10:47:45.072Z,99076.42
2023-04-17T10:50:57.285Z,99078.13
2023-04-17T10:54:10.808Z,99076.74
2023-04-17T10:57:33.842Z,99080.84
2023-04-17T11:00:55.671Z,99085.20
2023-04-17T11:04:08.374Z,99075.66
2023-04-17T11:07:22.773Z,99081.11
2023-04-17T11:10:35.267Z,99088.28
2023-04-17T11:13:52.703Z,99089.67
2023-04-17T11:17:05.171Z,99085.47
2023-04-17T11:20:20.907Z,99089.09
2023-04-17T11:23:37.868Z,99085.62
2023-04-17T11:26:54.083Z,99086.47
2023-04-17T11:30:06.232Z,99094.45
2023-04-17T11:33:18.806Z,99085.20
2023-04-17T11:36:31.419Z,99088.44
2023-04-17T11:39:46.359Z,99088.13
2023-04-17T11:42:58.535Z,99086.34
2023-04-17T11:46:11.064Z,99087.47
2023-04-17T11:49:30.407Z,99086.38
2023-04-17T11:52:42.434Z,99092.55
2023-04-17T11:55:56.504Z,99082.17
2023-04-17T11:59:08.649Z,99091.02
2023-04-17T12:02:21.266Z,99093.39
2023-04-17T12:05:35.297Z,99085.28
2023-04-17T12:08:53.711Z,99093.27
2023-04-17T12:12:09.021Z,99092.55
2023-04-17T12:15:21.689Z,99083.56
2023-04-17T12:18:35.313Z,99090.16
2023-04-17T12:21:48.006Z,99081.64
2023-04-17T12:25:00.337Z,99088.08
2023-04-17T12:28:13.198Z,99087.12
2023-04-17T12:31:25.910Z,99091.44
2023-04-17T12:34:38.057Z,99091.74
2023-04-17T12:37:51.606Z,99082.05
2023-04-17T12:41:03.791Z,99086.41
2023-04-17T12:44:16.315Z,99090.05
2023-04-17T12:47:28.375Z,99088.06
2023-04-17T12:50:43.070Z,99090.33
2023-04-17T12:53:55.399Z,99087.94
2023-04-17T12:57:07.714Z,99087.80
2023-04-17T13:00:22.700Z,99067.23
2023-04-17T13:03:35.257Z,99083.59
2023-04-17T13:06:47.733Z,99081.94
2023-04-17T13:09:59.816Z,99081.38
2023-04-17T13:13:11.903Z,99079.83
2023-04-17T13:16:24.154Z,99078.84
2023-04-17T13:19:39.602Z,99072.97
2023-04-17T13:22:51.632Z,99073.41
2023-04-17T13:26:03.877Z,99079.54
2023-04-17T13:29:18.510Z,99075.62
2023-04-17T13:32:30.292Z,99081.09
2023-04-17T13:35:42.703Z,99073.95
2023-04-17T13:38:54.838Z,99072.95
2023-04-17T13:42:06.896Z,99076.05
2023-04-17T13:45:19.598Z,99069.48
2023-04-17T13:48:31.910Z,99069.03
2023-04-17T13:51:44.075Z,99070.16
2023-04-17T13:54:56.226Z,99064.56
2023-04-17T13:58:09.040Z,99065.41
2023-04-17T14:01:21.323Z,99068.48
2023-04-17T14:04:33.942Z,99070.85
2023-04-17T14:07:47.412Z,99075.91
2023-04-17T14:11:00.151Z,99073.52
2023-04-17T14:14:13.003Z,99075.76
2023-04-17T14:17:25.294Z,99057.86
2023-04-17T14:20:37.813Z,99072.95
2023-04-17T14:23:51.684Z,99067.38
2023-04-17T14:27:03.953Z,99058.41
2023-04-17T14:30:17.967Z,99067.08
2023-04-17T14:33:30.189Z,99066.94
2023-04-17T14:36:43.795Z,99069.90
2023-04-17T14:39:56.169Z,99071.97
2023-04-17T14:43:08.321Z,99067.91
2023-04-17T14:46:20.739Z,99070.56
2023-04-17T14:49:33.052Z,99061.89
2023-04-17T14:52:45.268Z,99060.38
2023-04-17T14:55:59.378Z,99059.23
2023-04-17T14:59:29.565Z,99062.59
2023-04-17T15:02:46.625Z,99069.60
2023-04-17T15:06:02.649Z,99065.69
2023-04-17T15:09:15.296Z,99065.69
2023-04-17T15:12:28.093Z,99059.23
2023-04-17T15:15:40.355Z,99072.67
2023-04-17T15:18:52.522Z,99071.55
2023-04-17T15:22:04.930Z,99060.92
2023-04-17T15:25:17.576Z,99066.25
2023-04-17T15:28:29.793Z,99064.55
2023-04-17T15:31:42.734Z,99061.20
2023-04-17T15:34:55.021Z,99064.55
2023-04-17T15:38:07.128Z,99060.08
2023-04-17T15:41:19.330Z,99065.11
2023-04-17T15:44:31.592Z,99067.35
2023-04-17T15:47:48.511Z,99062.33
2023-04-17T15:51:02.041Z,99067.76
2023-04-17T15:54:15.283Z,99068.91
2023-04-17T15:57:27.419Z,99069.02
2023-04-17T16:00:39.724Z,99066.50
2023-04-17T16:03:52.096Z,99058.67
2023-04-17T16:07:06.084Z,99062.28
2023-04-17T16:10:24.830Z,99065.94
2023-04-17T16:13:46.226Z,99065.09
2023-04-17T16:17:00.525Z,99061.47
2023-04-17T16:20:15.917Z,99070.41
2023-04-17T16:23:28.063Z,99066.78
2023-04-17T16:26:42.851Z,99072.65
2023-04-17T16:29:55.119Z,99072.36
2023-04-17T16:33:07.447Z,99078.66
2023-04-17T16:36:19.761Z,99084.94
2023-04-17T16:39:32.145Z,99083.67
2023-04-17T16:42:44.656Z,99084.08
2023-04-17T16:45:57.624Z,99086.31
2023-04-17T16:49:11.809Z,99089.38
2023-04-17T16:52:24.441Z,99086.88
2023-04-17T16:55:36.594Z,99086.88
2023-04-17T16:58:48.927Z,99093.14
2023-04-17T17:02:02.544Z,99093.57
2023-04-17T17:05:16.646Z,99092.70
2023-04-17T17:08:29.112Z,99098.58
2023-04-17T17:11:41.428Z,99098.44
2023-04-17T17:14:53.462Z,99095.92
2023-04-17T17:18:05.582Z,99098.86
2023-04-17T17:21:18.813Z,99103.86
2023-04-17T17:24:31.648Z,99105.52
2023-04-17T17:27:43.930Z,99105.52
2023-04-17T17:30:57.994Z,99110.83
2023-04-17T17:34:25.249Z,99110.58
2023-04-17T17:37:27.098Z,99111.43
2023-04-17T17:40:39.321Z,99127.05
2023-04-17T17:43:51.561Z,99115.19
2023-04-17T17:47:06.375Z,99121.73
2023-04-17T17:50:18.847Z,99125.95
2023-04-17T17:53:31.502Z,99120.04
2023-04-17T17:56:43.970Z,99133.59
2023-04-17T17:59:58.194Z,99130.66
2023-04-17T18:03:10.824Z,99134.83
2023-04-17T18:06:23.440Z,99136.92
2023-04-17T18:09:35.507Z,99138.45
2023-04-17T18:12:47.788Z,99139.00
2023-04-17T18:15:59.968Z,99144.31
2023-04-17T18:19:12.558Z,99137.58
2023-04-17T18:22:24.921Z,99144.31
2023-04-17T18:25:37.828Z,99146.26
2023-04-17T18:28:50.014Z,99147.59
2023-04-17T18:32:02.338Z,99143.14
2023-04-17T18:35:15.999Z,99139.45
2023-04-17T18:38:28.362Z,99146.59
2023-04-17T18:41:40.868Z,99142.21
2023-04-17T18:44:53.288Z,99148.03
2023-04-17T18:48:05.754Z,99142.59
2023-04-17T18:51:20.965Z,99139.55
2023-04-17T18:54:35.048Z,99093.88
2023-04-17T19:11:51.116Z,99132.91
2023-04-17T19:15:06.503Z,99136.52
2023-04-17T19:39:58.347Z,99131.73
2023-04-17T19:43:10.851Z,99128.13
2023-04-17T19:55:23.564Z,99122.48
2023-04-17T20:01:37.358Z,99125.47
2023-04-17T20:32:55.793Z,99118.55
2023-04-17T20:36:08.738Z,99124.42
2023-04-17T20:42:21.264Z,99122.16
2023-04-17T20:45:33.608Z,99117.56
2023-04-17T20:48:45.834Z,99122.87
2023-04-17T20:51:59.218Z,99119.26
2023-04-17T20:55:13.162Z,99119.64
2023-04-17T20:58:25.632Z,99121.20
2023-04-17T21:01:38.163Z,99121.34
2023-04-17T21:04:50.595Z,99121.20
2023-04-17T21:08:02.936Z,99119.50
2023-04-17T21:11:14.988Z,99122.63
2023-04-17T21:14:27.493Z,99120.48
2023-04-17T21:17:39.520Z,99123.58
2023-04-17T21:23:56.392Z,99125.28
